Time,TemperatureF,DewpointF,PressureIn,WindDirection,WindDirectionDegrees,WindSpeedMPH,WindSpeedGustMPH,Humidity,HourlyPrecipIn,Conditions,Clouds,dailyrainin,SoftwareType,DateUTC
2013-04-04 00:00:00,22.2,16.7,30.50,WNW,294,0.0,3.0,79,0.00,,---,0.00,VWS V14.00,2013-04-04 04:00:00,
2013-04-04 00:14:00,21.9,16.4,30.49,WNW,294,0.0,0.0,79,0.00,,---,0.00,VWS V14.00,2013-04-04 04:14:00,
2013-04-04 00:22:00,21.8,16.6,30.49,WNW,294,0.0,0.0,80,0.00,,---,0.00,VWS V14.00,2013-04-04 04:22:00,
2013-04-04 00:30:00,21.6,16.4,30.49,WNW,294,0.0,0.0,80,0.00,,---,0.00,VWS V14.00,2013-04-04 04:30:00,
2013-04-04 00:38:00,21.5,16.3,30.48,WNW,294,0.0,0.0,80,0.00,,---,0.00,VWS V14.00,2013-04-04 04:38:00,
2013-04-04 00:46:00,21.4,16.5,30.48,WNW,294,0.0,0.0,81,0.00,,---,0.00,VWS V14.00,2013-04-04 04:46:00,
2013-04-04 00:54:00,21.2,16.3,30.48,WNW,294,0.0,1.0,81,0.00,,---,0.00,VWS V14.00,2013-04-04 04:54:00,
2013-04-04 01:00:00,21.0,16.1,30.48,WNW,294,0.0,1.0,81,0.00,,---,0.00,VWS V14.00,2013-04-04 05:00:00,
2013-04-04 01:10:00,20.8,16.2,30.48,WNW,294,0.0,1.0,82,0.00,,---,0.00,VWS V14.00,2013-04-04 05:10:00,
2013-04-04 01:18:00,20.8,16.2,30.48,WNW,294,0.0,1.0,82,0.00,,---,0.00,VWS V14.00,2013-04-04 05:18:00,
2013-04-04 01:26:00,20.8,16.2,30.48,WNW,294,0.0,1.0,82,0.00,,---,0.00,VWS V14.00,2013-04-04 05:26:00,
2013-04-04 01:34:00,20.6,16.0,30.49,WNW,294,0.0,0.0,82,0.00,,---,0.00,VWS V14.00,2013-04-04 05:34:00,
2013-04-04 01:42:00,20.7,16.1,30.49,WNW,294,1.0,1.0,82,0.00,,---,0.00,VWS V14.00,2013-04-04 05:42:00,
2013-04-04 01:50:00,20.7,16.4,30.50,WNW,294,0.0,2.0,83,0.00,,---,0.00,VWS V14.00,2013-04-04 05:50:00,
2013-04-04 01:58:00,20.5,15.9,30.50,WNW,294,0.0,2.0,82,0.00,,---,0.00,VWS V14.00,2013-04-04 05:58:00,
2013-04-04 02:06:00,20.4,16.1,30.51,WNW,294,0.0,0.0,83,0.00,,---,0.00,VWS V14.00,2013-04-04 06:06:00,
2013-04-04 02:14:00,20.4,16.1,30.51,WNW,294,0.0,4.0,83,0.00,,---,0.00,VWS V14.00,2013-04-04 06:14:00,
2013-04-04 02:22:00,20.6,16.3,30.51,WNW,294,0.0,4.0,83,0.00,,---,0.00,VWS V14.00,2013-04-04 06:22:00,
2013-04-04 02:30:00,20.5,16.2,30.51,WNW,294,0.0,4.0,83,0.00,,---,0.00,VWS V14.00,2013-04-04 06:30:00,
2013-04-04 02:38:00,20.5,16.2,30.51,WNW,294,0.0,1.0,83,0.00,,---,0.00,VWS V14.00,2013-04-04 06:38:00,
2013-04-04 02:46:00,20.6,16.3,30.51,WNW,294,0.0,1.0,83,0.00,,---,0.00,VWS V14.00,2013-04-04 06:46:00,
2013-04-04 02:54:00,20.8,16.5,30.51,WNW,294,2.0,2.0,83,0.00,,---,0.00,VWS V14.00,2013-04-04 06:54:00,
2013-04-04 03:00:00,20.8,16.5,30.51,WNW,294,0.0,3.0,83,0.00,,---,0.00,VWS V14.00,2013-04-04 07:00:00,
2013-04-04 03:10:00,21.0,16.7,30.51,SW,218,1.0,5.0,83,0.00,,---,0.00,VWS V14.00,2013-04-04 07:10:00,
2013-04-04 03:27:00,21.3,16.7,30.50,SW,218,0.0,5.0,82,0.00,,---,0.00,VWS V14.00,2013-04-04 07:27:00,
2013-04-04 03:35:00,21.3,16.7,30.51,SW,218,0.0,3.0,82,0.00,,---,0.00,VWS V14.00,2013-04-04 07:35:00,
2013-04-04 03:43:00,21.2,16.6,30.51,SW,218,1.0,4.0,82,0.00,,---,0.00,VWS V14.00,2013-04-04 07:43:00,
2013-04-04 03:51:00,21.2,16.6,30.51,SW,218,0.0,4.0,82,0.00,,---,0.00,VWS V14.00,2013-04-04 07:51:00,
2013-04-04 04:00:00,21.2,16.6,30.51,SW,218,0.0,4.0,82,0.00,,---,0.00,VWS V14.00,2013-04-04 08:00:00,
2013-04-04 04:07:00,21.1,16.2,30.51,SW,218,1.0,3.0,81,0.00,,---,0.00,VWS V14.00,2013-04-04 08:07:00,
2013-04-04 04:15:00,20.9,16.3,30.51,SW,218,0.0,3.0,82,0.00,,---,0.00,VWS V14.00,2013-04-04 08:15:00,
2013-04-04 04:23:00,20.7,16.1,30.51,SW,218,0.0,3.0,82,0.00,,---,0.00,VWS V14.00,2013-04-04 08:23:00,
2013-04-04 04:30:00,20.4,15.8,30.50,SW,218,0.0,3.0,82,0.00,,---,0.00,VWS V14.00,2013-04-04 08:30:00,
2013-04-04 04:39:00,20.0,15.7,30.50,SW,218,0.0,0.0,83,0.00,,---,0.00,VWS V14.00,2013-04-04 08:39:00,
2013-04-04 04:47:00,19.8,15.5,30.49,SW,218,0.0,0.0,83,0.00,,---,0.00,VWS V14.00,2013-04-04 08:47:00,
2013-04-04 04:55:00,19.5,15.5,30.49,SW,218,0.0,0.0,84,0.00,,---,0.00,VWS V14.00,2013-04-04 08:55:00,
2013-04-04 05:03:00,19.3,15.3,30.49,SW,218,0.0,0.0,84,0.00,,---,0.00,VWS V14.00,2013-04-04 09:03:00,
2013-04-04 05:11:00,19.1,15.1,30.50,SW,218,0.0,0.0,84,0.00,,---,0.00,VWS V14.00,2013-04-04 09:11:00,
2013-04-04 05:19:00,19.1,15.3,30.49,SW,218,0.0,2.0,85,0.00,,---,0.00,VWS V14.00,2013-04-04 09:19:00,
2013-04-04 05:27:00,19.0,15.2,30.49,SW,218,0.0,2.0,85,0.00,,---,0.00,VWS V14.00,2013-04-04 09:27:00,
2013-04-04 05:35:00,18.9,15.1,30.49,SW,218,0.0,1.0,85,0.00,,---,0.00,VWS V14.00,2013-04-04 09:35:00,
2013-04-04 05:52:00,18.7,15.2,30.49,SW,218,0.0,2.0,86,0.00,,---,0.00,VWS V14.00,2013-04-04 09:52:00,
2013-04-04 06:00:00,18.5,15.0,30.50,SW,218,1.0,3.0,86,0.00,,---,0.00,VWS V14.00,2013-04-04 10:00:00,
2013-04-04 06:08:00,18.2,14.7,30.50,SW,218,0.0,3.0,86,0.00,,---,0.00,VWS V14.00,2013-04-04 10:08:00,
2013-04-04 06:16:00,18.0,14.5,30.50,SW,218,0.0,3.0,86,0.00,,---,0.00,VWS V14.00,2013-04-04 10:16:00,
2013-04-04 06:24:00,18.1,14.9,30.50,SW,218,0.0,3.0,87,0.00,,---,0.00,VWS V14.00,2013-04-04 10:24:00,
2013-04-04 06:30:00,18.1,14.9,30.50,SW,218,0.0,3.0,87,0.00,,---,0.00,VWS V14.00,2013-04-04 10:30:00,
2013-04-04 06:40:00,18.1,14.9,30.50,SW,218,0.0,2.0,87,0.00,,---,0.00,VWS V14.00,2013-04-04 10:40:00,
2013-04-04 06:48:00,18.4,15.2,30.50,SW,218,1.0,4.0,87,0.00,,---,0.00,VWS V14.00,2013-04-04 10:48:00,
2013-04-04 06:56:00,18.7,15.5,30.49,SW,218,1.0,4.0,87,0.00,,---,0.00,VWS V14.00,2013-04-04 10:56:00,
2013-04-04 07:04:00,18.8,15.3,30.49,SW,218,2.0,4.0,86,0.00,,---,0.00,VWS V14.00,2013-04-04 11:04:00,
2013-04-04 07:12:00,18.9,15.4,30.49,SW,218,0.0,4.0,86,0.00,,---,0.00,VWS V14.00,2013-04-04 11:12:00,
2013-04-04 07:20:00,19.3,15.5,30.50,SW,218,3.0,5.0,85,0.00,,---,0.00,VWS V14.00,2013-04-04 11:20:00,
2013-04-04 07:28:00,19.8,16.0,30.49,SSW,200,4.0,7.0,85,0.00,,---,0.00,VWS V14.00,2013-04-04 11:28:00,
2013-04-04 07:36:00,20.2,15.9,30.49,SSW,197,0.0,6.0,83,0.00,,---,0.00,VWS V14.00,2013-04-04 11:36:00,
2013-04-04 07:44:00,20.3,16.0,30.49,SSW,197,0.0,6.0,83,0.00,,---,0.00,VWS V14.00,2013-04-04 11:44:00,
2013-04-04 07:52:00,20.6,16.3,30.49,SSW,196,0.0,6.0,83,0.00,,---,0.00,VWS V14.00,2013-04-04 11:52:00,
2013-04-04 08:00:00,20.9,16.3,30.49,SSW,196,1.0,6.0,82,0.00,,---,0.00,VWS V14.00,2013-04-04 12:00:00,
2013-04-04 08:08:00,21.2,16.6,30.49,SSW,196,1.0,5.0,82,0.00,,---,0.00,VWS V14.00,2013-04-04 12:08:00,
2013-04-04 08:16:00,21.7,16.8,30.49,SSW,196,1.0,5.0,81,0.00,,---,0.00,VWS V14.00,2013-04-04 12:16:00,
2013-04-04 08:24:00,22.3,17.6,30.49,SSW,196,4.0,5.0,82,0.00,,---,0.00,VWS V14.00,2013-04-04 12:24:00,
2013-04-04 08:30:00,22.7,17.8,30.48,SSW,196,3.0,5.0,81,0.00,,---,0.00,VWS V14.00,2013-04-04 12:30:00,
2013-04-04 08:40:00,23.6,17.8,30.48,SW,215,2.0,7.0,78,0.00,,---,0.00,VWS V14.00,2013-04-04 12:40:00,
2013-04-04 08:48:00,24.5,18.3,30.48,SSW,204,1.0,7.0,77,0.00,,---,0.00,VWS V14.00,2013-04-04 12:48:00,
2013-04-04 08:56:00,25.1,18.3,30.48,SW,221,2.0,7.0,75,0.00,,---,0.00,VWS V14.00,2013-04-04 12:56:00,
2013-04-04 09:04:00,25.8,18.0,30.48,SW,217,5.0,7.0,72,0.00,,---,0.00,VWS V14.00,2013-04-04 13:04:00,
2013-04-04 09:12:00,26.5,18.0,30.47,SW,225,4.0,7.0,70,0.00,,---,0.00,VWS V14.00,2013-04-04 13:12:00,
2013-04-04 09:20:00,27.2,18.4,30.46,SSW,202,1.0,7.0,69,0.00,,---,0.00,VWS V14.00,2013-04-04 13:20:00,
2013-04-04 09:28:00,27.8,18.6,30.45,South,185,2.0,7.0,68,0.00,,---,0.00,VWS V14.00,2013-04-04 13:28:00,
2013-04-04 09:36:00,28.2,18.3,30.45,South,183,5.0,8.0,66,0.00,,---,0.00,VWS V14.00,2013-04-04 13:36:00,
2013-04-04 09:44:00,28.7,18.8,30.44,SSW,210,2.0,8.0,66,0.00,,---,0.00,VWS V14.00,2013-04-04 13:44:00,
2013-04-04 09:52:00,29.5,19.6,30.44,SSE,153,2.0,8.0,66,0.00,,---,0.00,VWS V14.00,2013-04-04 13:52:00,
2013-04-04 10:00:00,30.0,19.0,30.44,SSE,149,6.0,8.0,63,0.00,,---,0.00,VWS V14.00,2013-04-04 14:00:00,
2013-04-04 10:17:00,31.2,17.3,30.43,South,180,6.0,7.0,56,0.00,,---,0.00,VWS V14.00,2013-04-04 14:17:00,
2013-04-04 10:25:00,31.8,17.9,30.42,SSW,205,2.0,8.0,56,0.00,,---,0.00,VWS V14.00,2013-04-04 14:25:00,
2013-04-04 10:30:00,32.4,17.6,30.42,SW,222,3.0,8.0,54,0.00,,---,0.00,VWS V14.00,2013-04-04 14:30:00,
2013-04-04 10:49:00,34.0,18.7,30.41,SSW,213,2.0,8.0,53,0.00,,---,0.00,VWS V14.00,2013-04-04 14:49:00,
2013-04-04 10:57:00,34.6,17.4,30.41,SSW,200,7.0,8.0,49,0.00,,---,0.00,VWS V14.00,2013-04-04 14:57:00,
2013-04-04 11:05:00,34.6,16.0,30.41,SW,222,2.0,9.0,46,0.00,,---,0.00,VWS V14.00,2013-04-04 15:05:00,
2013-04-04 11:13:00,35.3,17.1,30.41,SW,217,5.0,9.0,47,0.00,,---,0.00,VWS V14.00,2013-04-04 15:13:00,
2013-04-04 11:21:00,35.7,17.5,30.40,SSW,210,5.0,9.0,47,0.00,,---,0.00,VWS V14.00,2013-04-04 15:21:00,
2013-04-04 11:29:00,36.8,17.5,30.40,SW,219,4.0,9.0,45,0.00,,---,0.00,VWS V14.00,2013-04-04 15:29:00,
2013-04-04 11:37:00,37.3,15.2,30.39,SW,218,1.0,7.0,40,0.00,,---,0.00,VWS V14.00,2013-04-04 15:37:00,
2013-04-04 11:45:00,37.8,15.7,30.39,SSW,211,1.0,7.0,40,0.00,,---,0.00,VWS V14.00,2013-04-04 15:45:00,
2013-04-04 11:53:00,38.5,15.7,30.38,SSW,201,4.0,7.0,39,0.00,,---,0.00,VWS V14.00,2013-04-04 15:53:00,
2013-04-04 12:00:00,38.5,14.5,30.38,SSW,208,2.0,7.0,37,0.00,,---,0.00,VWS V14.00,2013-04-04 16:00:00,
2013-04-04 12:10:00,39.7,13.6,30.37,SW,221,0.0,7.0,34,0.00,,---,0.00,VWS V14.00,2013-04-04 16:10:00,
2013-04-04 12:18:00,40.6,17.0,30.37,SW,219,5.0,7.0,38,0.00,,---,0.00,VWS V14.00,2013-04-04 16:18:00,
2013-04-04 12:26:00,41.4,15.1,30.36,WSW,250,6.0,9.0,34,0.00,,---,0.00,VWS V14.00,2013-04-04 16:26:00,
2013-04-04 12:42:00,42.7,14.9,30.35,SW,226,4.0,9.0,32,0.00,,---,0.00,VWS V14.00,2013-04-04 16:42:00,
2013-04-04 12:50:00,42.8,14.3,30.34,SSW,210,7.0,9.0,31,0.00,,---,0.00,VWS V14.00,2013-04-04 16:50:00,
2013-04-04 12:58:00,43.7,14.3,30.33,SW,226,2.0,11.0,30,0.00,,---,0.00,VWS V14.00,2013-04-04 16:58:00,
2013-04-04 13:06:00,44.6,13.5,30.33,WSW,240,2.0,10.0,28,0.00,,---,0.00,VWS V14.00,2013-04-04 17:06:00,
2013-04-04 13:14:00,44.7,15.2,30.32,SW,236,4.0,10.0,30,0.00,,---,0.00,VWS V14.00,2013-04-04 17:14:00,
2013-04-04 13:22:00,45.3,14.9,30.31,SW,215,1.0,11.0,29,0.00,,---,0.00,VWS V14.00,2013-04-04 17:22:00,
2013-04-04 13:30:00,46.0,14.7,30.31,SSW,211,3.0,11.0,28,0.00,,---,0.00,VWS V14.00,2013-04-04 17:30:00,
2013-04-04 13:38:00,46.0,13.9,30.30,SSW,198,9.0,12.0,27,0.00,,---,0.00,VWS V14.00,2013-04-04 17:38:00,
2013-04-04 13:46:00,46.5,11.7,30.30,SW,232,5.0,12.0,24,0.00,,---,0.00,VWS V14.00,2013-04-04 17:46:00,
2013-04-04 13:54:00,46.6,13.6,30.29,SSW,202,11.0,12.0,26,0.00,,---,0.00,VWS V14.00,2013-04-04 17:54:00,
2013-04-04 14:00:00,46.4,9.6,30.29,SSW,202,5.0,13.0,22,0.00,,---,0.00,VWS V14.00,2013-04-04 18:00:00,
2013-04-04 14:10:00,46.7,9.9,30.28,SW,232,3.0,12.0,22,0.00,,---,0.00,VWS V14.00,2013-04-04 18:10:00,
2013-04-04 14:18:00,47.3,11.4,30.27,West,271,4.0,12.0,23,0.00,,---,0.00,VWS V14.00,2013-04-04 18:18:00,
2013-04-04 14:30:00,48.1,13.0,30.26,SW,234,8.0,12.0,24,0.00,,---,0.00,VWS V14.00,2013-04-04 18:30:00,
2013-04-04 14:42:00,48.3,11.2,30.25,SSE,161,10.0,14.0,22,0.00,,---,0.00,VWS V14.00,2013-04-04 18:42:00,
2013-04-04 14:50:00,48.7,14.5,30.25,SW,223,6.0,14.0,25,0.00,,---,0.00,VWS V14.00,2013-04-04 18:50:00,
2013-04-04 15:00:00,49.7,9.1,30.25,SW,222,5.0,14.0,19,0.00,,---,0.00,VWS V14.00,2013-04-04 19:00:00,
2013-04-04 15:07:00,49.9,13.6,30.24,SW,223,2.0,13.0,23,0.00,,---,0.00,VWS V14.00,2013-04-04 19:07:00,
2013-04-04 15:15:00,50.4,15.0,30.24,SSW,194,7.0,13.0,24,0.00,,---,0.00,VWS V14.00,2013-04-04 19:15:00,
2013-04-04 15:23:00,50.3,11.9,30.23,West,279,5.0,13.0,21,0.00,,---,0.00,VWS V14.00,2013-04-04 19:23:00,
2013-04-04 15:30:00,51.2,12.6,30.24,SW,232,3.0,13.0,21,0.00,,---,0.00,VWS V14.00,2013-04-04 19:30:00,
2013-04-04 15:47:00,50.9,12.4,30.23,SW,227,6.0,16.0,21,0.00,,---,0.00,VWS V14.00,2013-04-04 19:47:00,
2013-04-04 15:55:00,51.4,13.9,30.22,SW,225,9.0,16.0,22,0.00,,---,0.00,VWS V14.00,2013-04-04 19:55:00,
2013-04-04 16:00:00,51.1,12.5,30.21,NW,304,4.0,16.0,21,0.00,,---,0.00,VWS V14.00,2013-04-04 20:00:00,
2013-04-04 16:19:00,51.1,12.5,30.20,SW,225,4.0,13.0,21,0.00,,---,0.00,VWS V14.00,2013-04-04 20:19:00,
2013-04-04 16:27:00,52.1,13.4,30.19,WNW,300,6.0,13.0,21,0.00,,---,0.00,VWS V14.00,2013-04-04 20:27:00,
2013-04-04 16:35:00,52.4,10.1,30.19,West,273,10.0,12.0,18,0.00,,---,0.00,VWS V14.00,2013-04-04 20:35:00,
2013-04-04 16:43:00,53.0,10.6,30.18,SW,215,5.0,12.0,18,0.00,,---,0.00,VWS V14.00,2013-04-04 20:43:00,
2013-04-04 16:51:00,52.8,7.9,30.18,WSW,245,5.0,15.0,16,0.00,,---,0.00,VWS V14.00,2013-04-04 20:51:00,
2013-04-04 16:59:00,52.8,10.5,30.18,SW,223,7.0,17.0,18,0.00,,---,0.00,VWS V14.00,2013-04-04 20:59:00,
2013-04-04 17:07:00,53.0,9.4,30.18,WSW,248,6.0,13.0,17,0.00,,---,0.00,VWS V14.00,2013-04-04 21:07:00,
2013-04-04 17:15:00,52.9,9.3,30.17,SW,220,10.0,15.0,17,0.00,,---,0.00,VWS V14.00,2013-04-04 21:15:00,
2013-04-04 17:30:00,52.8,9.2,30.16,WSW,238,4.0,15.0,17,0.00,,---,0.00,VWS V14.00,2013-04-04 21:30:00,
2013-04-04 17:39:00,53.0,10.6,30.16,SW,224,0.0,15.0,18,0.00,,---,0.00,VWS V14.00,2013-04-04 21:39:00,
2013-04-04 17:47:00,53.7,9.9,30.15,SW,222,9.0,15.0,17,0.00,,---,0.00,VWS V14.00,2013-04-04 21:47:00,
2013-04-04 17:56:00,53.0,9.4,30.15,WSW,248,7.0,15.0,17,0.00,,---,0.00,VWS V14.00,2013-04-04 21:56:00,
2013-04-04 18:12:00,52.7,7.8,30.15,SW,236,5.0,13.0,16,0.00,,---,0.00,VWS V14.00,2013-04-04 22:12:00,
2013-04-04 18:20:00,52.8,11.7,30.15,SSW,209,6.0,13.0,19,0.00,,---,0.00,VWS V14.00,2013-04-04 22:20:00,
2013-04-04 18:28:00,52.6,10.3,30.15,WSW,244,5.0,13.0,18,0.00,,---,0.00,VWS V14.00,2013-04-04 22:28:00,
2013-04-04 18:36:00,52.3,10.1,30.15,West,260,7.0,8.0,18,0.00,,---,0.00,VWS V14.00,2013-04-04 22:36:00,
2013-04-04 18:44:00,52.0,9.8,30.14,SW,220,4.0,9.0,18,0.00,,---,0.00,VWS V14.00,2013-04-04 22:44:00,
2013-04-04 18:52:00,51.7,9.6,30.14,SW,228,4.0,9.0,18,0.00,,---,0.00,VWS V14.00,2013-04-04 22:52:00,
2013-04-04 19:00:00,51.3,10.5,30.14,SW,224,2.0,10.0,19,0.00,,---,0.00,VWS V14.00,2013-04-04 23:00:00,
2013-04-04 19:08:00,50.9,11.3,30.14,WSW,254,4.0,7.0,20,0.00,,---,0.00,VWS V14.00,2013-04-04 23:08:00,
2013-04-04 19:16:00,50.8,8.8,30.14,SW,230,3.0,8.0,18,0.00,,---,0.00,VWS V14.00,2013-04-04 23:16:00,
2013-04-04 19:24:00,50.4,10.9,30.14,SW,221,0.0,8.0,20,0.00,,---,0.00,VWS V14.00,2013-04-04 23:24:00,
2013-04-04 19:30:00,49.9,10.4,30.14,SW,227,2.0,8.0,20,0.00,,---,0.00,VWS V14.00,2013-04-04 23:30:00,
2013-04-04 19:40:00,49.1,10.9,30.14,WSW,248,3.0,5.0,21,0.00,,---,0.00,VWS V14.00,2013-04-04 23:40:00,
2013-04-04 19:48:00,48.5,10.4,30.13,SW,236,1.0,5.0,21,0.00,,---,0.00,VWS V14.00,2013-04-04 23:48:00,
2013-04-04 19:56:00,48.1,11.1,30.13,SW,236,1.0,5.0,22,0.00,,---,0.00,VWS V14.00,2013-04-04 23:56:00,
2013-04-04 20:04:00,47.7,9.7,30.13,SW,236,0.0,3.0,21,0.00,,---,0.00,VWS V14.00,2013-04-05 00:04:00,
2013-04-04 20:12:00,47.2,11.3,30.13,SW,236,0.0,3.0,23,0.00,,---,0.00,VWS V14.00,2013-04-05 00:12:00,
2013-04-04 20:20:00,46.4,10.6,30.12,SW,236,0.0,3.0,23,0.00,,---,0.00,VWS V14.00,2013-04-05 00:20:00,
2013-04-04 20:30:00,45.9,9.2,30.12,SW,235,2.0,4.0,22,0.00,,---,0.00,VWS V14.00,2013-04-05 00:30:00,
2013-04-04 20:37:00,45.7,11.0,30.12,SW,235,2.0,4.0,24,0.00,,---,0.00,VWS V14.00,2013-04-05 00:37:00,
2013-04-04 20:45:00,45.2,11.5,30.12,SW,235,0.0,4.0,25,0.00,,---,0.00,VWS V14.00,2013-04-05 00:45:00,
2013-04-04 20:53:00,44.4,8.9,30.12,SW,235,0.0,4.0,23,0.00,,---,0.00,VWS V14.00,2013-04-05 00:53:00,
2013-04-04 21:00:00,43.8,8.4,30.11,SW,235,0.0,4.0,23,0.00,,---,0.00,VWS V14.00,2013-04-05 01:00:00,
2013-04-04 21:09:00,43.1,9.7,30.11,SW,235,0.0,1.0,25,0.00,,---,0.00,VWS V14.00,2013-04-05 01:09:00,
2013-04-04 21:17:00,43.2,8.9,30.11,SW,235,0.0,2.0,24,0.00,,---,0.00,VWS V14.00,2013-04-05 01:17:00,
2013-04-04 21:25:00,43.4,9.0,30.11,SW,235,1.0,2.0,24,0.00,,---,0.00,VWS V14.00,2013-04-05 01:25:00,
2013-04-04 21:30:00,43.5,9.1,30.11,SW,235,0.0,2.0,24,0.00,,---,0.00,VWS V14.00,2013-04-05 01:30:00,
2013-04-04 21:57:00,43.0,8.7,30.11,SW,216,2.0,5.0,24,0.00,,---,0.00,VWS V14.00,2013-04-05 01:57:00,
2013-04-04 22:05:00,43.3,10.7,30.11,SW,215,3.0,7.0,26,0.00,,---,0.00,VWS V14.00,2013-04-05 02:05:00,
2013-04-04 22:13:00,43.4,10.8,30.11,SW,222,4.0,7.0,26,0.00,,---,0.00,VWS V14.00,2013-04-05 02:13:00,
2013-04-04 22:21:00,42.9,12.1,30.11,SW,228,2.0,7.0,28,0.00,,---,0.00,VWS V14.00,2013-04-05 02:21:00,
2013-04-04 22:29:00,42.5,11.7,30.10,WSW,239,3.0,7.0,28,0.00,,---,0.00,VWS V14.00,2013-04-05 02:29:00,
2013-04-04 22:37:00,42.4,12.4,30.10,SSW,192,5.0,6.0,29,0.00,,---,0.00,VWS V14.00,2013-04-05 02:37:00,
2013-04-04 22:45:00,42.0,12.8,30.10,SSW,203,4.0,6.0,30,0.00,,---,0.00,VWS V14.00,2013-04-05 02:45:00,
2013-04-04 22:53:00,41.7,12.6,30.10,SSW,209,1.0,6.0,30,0.00,,---,0.00,VWS V14.00,2013-04-05 02:53:00,
2013-04-04 23:00:00,41.4,12.3,30.10,SSW,207,2.0,6.0,30,0.00,,---,0.00,VWS V14.00,2013-04-05 03:00:00,
2013-04-04 23:09:00,40.9,12.6,30.09,SSW,207,0.0,6.0,31,0.00,,---,0.00,VWS V14.00,2013-04-05 03:09:00,
2013-04-04 23:17:00,40.4,12.2,30.09,SSW,207,1.0,6.0,31,0.00,,---,0.00,VWS V14.00,2013-04-05 03:17:00,
2013-04-04 23:25:00,39.9,13.1,30.08,SSW,209,0.0,6.0,33,0.00,,---,0.00,VWS V14.00,2013-04-05 03:25:00,
2013-04-04 23:34:00,39.5,12.8,30.08,South,187,0.0,4.0,33,0.00,,---,0.00,VWS V14.00,2013-04-05 03:34:00,
2013-04-04 23:42:00,39.3,12.6,30.08,South,187,2.0,4.0,33,0.00,,---,0.00,VWS V14.00,2013-04-05 03:42:00,
2013-04-04 23:50:00,39.2,13.2,30.08,SW,225,1.0,4.0,34,0.00,,---,0.00,VWS V14.00,2013-04-05 03:50:00,
2013-04-04 23:58:00,38.9,12.9,30.08,SSW,201,1.0,6.0,34,0.00,,---,0.00,VWS V14.00,2013-04-05 03:58:00,